sensor_id;sensor_type;location;lat;lon;timestamp;P1;durP1;ratioP1;P2;durP2;ratioP2
30000;SDS011;16845;48.670;9.000;2023-12-29T00:00:14;3.43;;;2.97;;
30000;SDS011;16845;48.670;9.000;2023-12-29T00:02:42;3.65;;;3.10;;
30000;SDS011;16845;48.670;9.000;2023-12-29T00:05:09;4.05;;;2.90;;
30000;SDS011;16845;48.670;9.000;2023-12-29T00:07:36;6.63;;;2.90;;
30000;SDS011;16845;48.670;9.000;2023-12-29T00:10:02;4.15;;;3.35;;
30000;SDS011;16845;48.670;9.000;2023-12-29T00:12:30;4.57;;;2.75;;
30000;SDS011;16845;48.670;9.000;2023-12-29T00:14:56;3.70;;;3.22;;
30000;SDS011;16845;48.670;9.000;2023-12-29T00:17:23;4.67;;;3.60;;
30000;SDS011;16845;48.670;9.000;2023-12-29T00:19:51;4.67;;;3.30;;
30000;SDS011;16845;48.670;9.000;2023-12-29T00:22:17;5.13;;;2.90;;
30000;SDS011;16845;48.670;9.000;2023-12-29T00:24:44;5.50;;;2.97;;
30000;SDS011;16845;48.670;9.000;2023-12-29T00:27:11;5.15;;;3.80;;
30000;SDS011;16845;48.670;9.000;2023-12-29T00:29:37;4.37;;;3.10;;
30000;SDS011;16845;48.670;9.000;2023-12-29T00:32:04;5.63;;;3.40;;
30000;SDS011;16845;48.670;9.000;2023-12-29T00:34:31;3.47;;;2.92;;
30000;SDS011;16845;48.670;9.000;2023-12-29T00:37:00;4.20;;;3.13;;
30000;SDS011;16845;48.670;9.000;2023-12-29T00:39:27;4.95;;;2.78;;
30000;SDS011;16845;48.670;9.000;2023-12-29T00:41:54;5.00;;;3.15;;
30000;SDS011;16845;48.670;9.000;2023-12-29T00:44:20;3.65;;;3.30;;
30000;SDS011;16845;48.670;9.000;2023-12-29T00:46:47;6.67;;;3.87;;
30000;SDS011;16845;48.670;9.000;2023-12-29T00:49:13;7.37;;;3.40;;
30000;SDS011;16845;48.670;9.000;2023-12-29T00:51:40;6.90;;;4.03;;
30000;SDS011;16845;48.670;9.000;2023-12-29T00:54:09;5.35;;;3.97;;
30000;SDS011;16845;48.670;9.000;2023-12-29T00:56:35;6.53;;;3.28;;
30000;SDS011;16845;48.670;9.000;2023-12-29T00:59:02;5.38;;;4.07;;
30000;SDS011;16845;48.670;9.000;2023-12-29T01:01:32;8.65;;;4.00;;
30000;SDS011;16845;48.670;9.000;2023-12-29T01:03:59;5.40;;;3.88;;
30000;SDS011;16845;48.670;9.000;2023-12-29T01:06:26;10.60;;;4.10;;
30000;SDS011;16845;48.670;9.000;2023-12-29T01:08:53;4.53;;;3.33;;
30000;SDS011;16845;48.670;9.000;2023-12-29T01:11:21;3.97;;;3.28;;
30000;SDS011;16845;48.670;9.000;2023-12-29T01:13:47;3.85;;;3.05;;
30000;SDS011;16845;48.670;9.000;2023-12-29T01:16:14;6.28;;;3.92;;
30000;SDS011;16845;48.670;9.000;2023-12-29T01:18:40;3.83;;;3.20;;
30000;SDS011;16845;48.670;9.000;2023-12-29T01:21:07;7.35;;;4.45;;
30000;SDS011;16845;48.670;9.000;2023-12-29T01:23:33;4.28;;;3.42;;
30000;SDS011;16845;48.670;9.000;2023-12-29T01:26:00;7.88;;;3.45;;
30000;SDS011;16845;48.670;9.000;2023-12-29T01:28:28;3.83;;;3.28;;
30000;SDS011;16845;48.670;9.000;2023-12-29T01:30:54;8.02;;;3.83;;
30000;SDS011;16845;48.670;9.000;2023-12-29T01:33:21;4.63;;;3.63;;
30000;SDS011;16845;48.670;9.000;2023-12-29T01:35:48;5.57;;;3.60;;
30000;SDS011;16845;48.670;9.000;2023-12-29T01:38:14;8.73;;;4.05;;
30000;SDS011;16845;48.670;9.000;2023-12-29T01:40:44;7.38;;;3.45;;
30000;SDS011;16845;48.670;9.000;2023-12-29T01:43:11;6.60;;;4.03;;
30000;SDS011;16845;48.670;9.000;2023-12-29T01:45:39;5.28;;;4.00;;
30000;SDS011;16845;48.670;9.000;2023-12-29T01:48:21;5.75;;;4.10;;
30000;SDS011;16845;48.670;9.000;2023-12-29T01:50:49;5.85;;;3.25;;
30000;SDS011;16845;48.670;9.000;2023-12-29T01:53:15;6.57;;;4.23;;
30000;SDS011;16845;48.670;9.000;2023-12-29T01:55:43;6.38;;;4.22;;
30000;SDS011;16845;48.670;9.000;2023-12-29T01:58:10;4.55;;;4.00;;
30000;SDS011;16845;48.670;9.000;2023-12-29T02:00:36;6.60;;;4.77;;
30000;SDS011;16845;48.670;9.000;2023-12-29T02:03:05;6.20;;;3.78;;
30000;SDS011;16845;48.670;9.000;2023-12-29T02:05:32;8.93;;;3.85;;
30000;SDS011;16845;48.670;9.000;2023-12-29T02:08:01;7.35;;;4.00;;
30000;SDS011;16845;48.670;9.000;2023-12-29T02:10:31;6.13;;;4.20;;
30000;SDS011;16845;48.670;9.000;2023-12-29T02:12:58;5.82;;;4.35;;
30000;SDS011;16845;48.670;9.000;2023-12-29T02:15:24;7.63;;;4.00;;
30000;SDS011;16845;48.670;9.000;2023-12-29T02:17:52;5.50;;;4.37;;
30000;SDS011;16845;48.670;9.000;2023-12-29T02:20:27;5.93;;;3.80;;
30000;SDS011;16845;48.670;9.000;2023-12-29T02:22:54;5.75;;;3.60;;
30000;SDS011;16845;48.670;9.000;2023-12-29T02:25:22;9.45;;;4.38;;
30000;SDS011;16845;48.670;9.000;2023-12-29T02:27:49;8.43;;;4.28;;
30000;SDS011;16845;48.670;9.000;2023-12-29T02:30:20;6.03;;;4.78;;
30000;SDS011;16845;48.670;9.000;2023-12-29T02:32:53;4.50;;;3.55;;
30000;SDS011;16845;48.670;9.000;2023-12-29T02:35:23;6.07;;;4.35;;
30000;SDS011;16845;48.670;9.000;2023-12-29T02:37:51;5.13;;;4.18;;
30000;SDS011;16845;48.670;9.000;2023-12-29T02:40:18;9.57;;;3.97;;
30000;SDS011;16845;48.670;9.000;2023-12-29T02:42:47;8.10;;;4.90;;
30000;SDS011;16845;48.670;9.000;2023-12-29T02:45:14;8.80;;;4.18;;
30000;SDS011;16845;48.670;9.000;2023-12-29T02:47:41;8.13;;;3.97;;
30000;SDS011;16845;48.670;9.000;2023-12-29T02:52:35;5.20;;;3.95;;
30000;SDS011;16845;48.670;9.000;2023-12-29T02:55:02;6.93;;;4.57;;
30000;SDS011;16845;48.670;9.000;2023-12-29T02:57:29;7.38;;;5.45;;
30000;SDS011;16845;48.670;9.000;2023-12-29T02:59:57;7.93;;;4.78;;
30000;SDS011;16845;48.670;9.000;2023-12-29T03:02:23;8.38;;;5.05;;
30000;SDS011;16845;48.670;9.000;2023-12-29T03:04:50;8.98;;;5.63;;
30000;SDS011;16845;48.670;9.000;2023-12-29T03:07:17;6.47;;;4.70;;
30000;SDS011;16845;48.670;9.000;2023-12-29T03:09:43;7.23;;;4.80;;
30000;SDS011;16845;48.670;9.000;2023-12-29T03:12:10;8.05;;;4.78;;
30000;SDS011;16845;48.670;9.000;2023-12-29T03:14:37;7.63;;;4.53;;
30000;SDS011;16845;48.670;9.000;2023-12-29T03:17:05;8.70;;;4.60;;
30000;SDS011;16845;48.670;9.000;2023-12-29T03:19:32;6.45;;;4.80;;
30000;SDS011;16845;48.670;9.000;2023-12-29T03:21:58;8.73;;;5.83;;
30000;SDS011;16845;48.670;9.000;2023-12-29T03:24:25;6.53;;;4.27;;
30000;SDS011;16845;48.670;9.000;2023-12-29T03:26:51;8.75;;;4.63;;
30000;SDS011;16845;48.670;9.000;2023-12-29T03:29:18;7.03;;;4.60;;
30000;SDS011;16845;48.670;9.000;2023-12-29T03:31:44;4.77;;;4.37;;
30000;SDS011;16845;48.670;9.000;2023-12-29T03:34:13;8.50;;;4.20;;
30000;SDS011;16845;48.670;9.000;2023-12-29T03:36:39;7.03;;;4.22;;
30000;SDS011;16845;48.670;9.000;2023-12-29T03:39:06;6.63;;;4.47;;
30000;SDS011;16845;48.670;9.000;2023-12-29T03:41:33;11.10;;;4.43;;
30000;SDS011;16845;48.670;9.000;2023-12-29T03:43:59;5.88;;;4.32;;
30000;SDS011;16845;48.670;9.000;2023-12-29T03:46:26;5.90;;;3.87;;
30000;SDS011;16845;48.670;9.000;2023-12-29T03:48:52;6.07;;;4.57;;
30000;SDS011;16845;48.670;9.000;2023-12-29T03:51:21;5.47;;;4.15;;
30000;SDS011;16845;48.670;9.000;2023-12-29T03:53:47;8.32;;;5.03;;
30000;SDS011;16845;48.670;9.000;2023-12-29T03:56:14;5.40;;;4.27;;
30000;SDS011;16845;48.670;9.000;2023-12-29T03:58:42;7.35;;;4.22;;
30000;SDS011;16845;48.670;9.000;2023-12-29T04:01:09;5.63;;;3.97;;
30000;SDS011;16845;48.670;9.000;2023-12-29T04:06:02;4.88;;;3.65;;
30000;SDS011;16845;48.670;9.000;2023-12-29T04:08:30;7.20;;;4.28;;
30000;SDS011;16845;48.670;9.000;2023-12-29T04:10:57;7.70;;;4.40;;
30000;SDS011;16845;48.670;9.000;2023-12-29T04:13:24;5.28;;;4.20;;
30000;SDS011;16845;48.670;9.000;2023-12-29T04:15:50;5.53;;;3.90;;
30000;SDS011;16845;48.670;9.000;2023-12-29T04:18:17;7.43;;;4.57;;
30000;SDS011;16845;48.670;9.000;2023-12-29T04:20:44;6.43;;;4.05;;
30000;SDS011;16845;48.670;9.000;2023-12-29T04:23:10;4.70;;;4.20;;
30000;SDS011;16845;48.670;9.000;2023-12-29T04:25:38;5.93;;;4.32;;
30000;SDS011;16845;48.670;9.000;2023-12-29T04:28:05;5.43;;;4.25;;
30000;SDS011;16845;48.670;9.000;2023-12-29T04:32:59;6.60;;;4.25;;
30000;SDS011;16845;48.670;9.000;2023-12-29T04:35:26;7.05;;;5.55;;
30000;SDS011;16845;48.670;9.000;2023-12-29T04:37:53;7.57;;;5.28;;
30000;SDS011;16845;48.670;9.000;2023-12-29T04:40:19;6.35;;;4.93;;
30000;SDS011;16845;48.670;9.000;2023-12-29T04:42:47;8.05;;;5.43;;
30000;SDS011;16845;48.670;9.000;2023-12-29T04:45:14;6.63;;;5.22;;
30000;SDS011;16845;48.670;9.000;2023-12-29T04:47:41;7.60;;;4.93;;
30000;SDS011;16845;48.670;9.000;2023-12-29T04:50:08;8.20;;;5.25;;
30000;SDS011;16845;48.670;9.000;2023-12-29T04:52:35;5.43;;;4.47;;
30000;SDS011;16845;48.670;9.000;2023-12-29T04:55:01;8.20;;;4.90;;
30000;SDS011;16845;48.670;9.000;2023-12-29T04:57:28;8.35;;;5.22;;
30000;SDS011;16845;48.670;9.000;2023-12-29T04:59:56;6.03;;;4.85;;
30000;SDS011;16845;48.670;9.000;2023-12-29T05:02:23;7.43;;;4.88;;
30000;SDS011;16845;48.670;9.000;2023-12-29T05:04:49;6.50;;;5.03;;
30000;SDS011;16845;48.670;9.000;2023-12-29T05:07:16;6.53;;;4.90;;
30000;SDS011;16845;48.670;9.000;2023-12-29T05:09:43;6.03;;;5.10;;
30000;SDS011;16845;48.670;9.000;2023-12-29T05:12:10;6.60;;;5.25;;
30000;SDS011;16845;48.670;9.000;2023-12-29T05:14:36;7.13;;;5.40;;
30000;SDS011;16845;48.670;9.000;2023-12-29T05:17:04;8.70;;;5.07;;
30000;SDS011;16845;48.670;9.000;2023-12-29T05:19:31;6.72;;;4.97;;
30000;SDS011;16845;48.670;9.000;2023-12-29T05:21:57;5.97;;;4.03;;
30000;SDS011;16845;48.670;9.000;2023-12-29T05:24:24;6.13;;;4.70;;
30000;SDS011;16845;48.670;9.000;2023-12-29T05:26:51;5.18;;;4.65;;
30000;SDS011;16845;48.670;9.000;2023-12-29T05:29:17;6.50;;;4.70;;
30000;SDS011;16845;48.670;9.000;2023-12-29T05:31:44;8.82;;;5.20;;
30000;SDS011;16845;48.670;9.000;2023-12-29T05:34:12;5.95;;;4.78;;
30000;SDS011;16845;48.670;9.000;2023-12-29T05:36:38;6.35;;;5.15;;
30000;SDS011;16845;48.670;9.000;2023-12-29T05:39:05;6.70;;;3.90;;
30000;SDS011;16845;48.670;9.000;2023-12-29T05:41:32;5.32;;;4.28;;
30000;SDS011;16845;48.670;9.000;2023-12-29T05:43:59;5.32;;;3.85;;
30000;SDS011;16845;48.670;9.000;2023-12-29T05:46:25;5.75;;;3.95;;
30000;SDS011;16845;48.670;9.000;2023-12-29T05:48:52;8.65;;;4.50;;
30000;SDS011;16845;48.670;9.000;2023-12-29T05:51:21;4.22;;;3.65;;
30000;SDS011;16845;48.670;9.000;2023-12-29T05:53:48;7.35;;;4.45;;
30000;SDS011;16845;48.670;9.000;2023-12-29T05:56:14;5.53;;;4.28;;
30000;SDS011;16845;48.670;9.000;2023-12-29T05:58:41;8.07;;;4.30;;
30000;SDS011;16845;48.670;9.000;2023-12-29T06:01:08;6.13;;;4.88;;
30000;SDS011;16845;48.670;9.000;2023-12-29T06:03:34;6.65;;;4.88;;
30000;SDS011;16845;48.670;9.000;2023-12-29T06:06:01;5.50;;;4.53;;
30000;SDS011;16845;48.670;9.000;2023-12-29T06:08:29;7.20;;;4.57;;
30000;SDS011;16845;48.670;9.000;2023-12-29T06:10:56;5.97;;;4.43;;
30000;SDS011;16845;48.670;9.000;2023-12-29T06:13:22;9.88;;;4.82;;
30000;SDS011;16845;48.670;9.000;2023-12-29T06:15:49;6.32;;;4.93;;
30000;SDS011;16845;48.670;9.000;2023-12-29T06:18:15;6.43;;;4.22;;
30000;SDS011;16845;48.670;9.000;2023-12-29T06:20:42;7.93;;;4.43;;
30000;SDS011;16845;48.670;9.000;2023-12-29T06:23:08;8.65;;;5.25;;
30000;SDS011;16845;48.670;9.000;2023-12-29T06:25:36;6.70;;;4.63;;
30000;SDS011;16845;48.670;9.000;2023-12-29T06:28:05;5.93;;;4.45;;
30000;SDS011;16845;48.670;9.000;2023-12-29T06:30:31;7.20;;;4.32;;
30000;SDS011;16845;48.670;9.000;2023-12-29T06:32:58;4.78;;;3.90;;
30000;SDS011;16845;48.670;9.000;2023-12-29T06:35:25;6.78;;;4.15;;
30000;SDS011;16845;48.670;9.000;2023-12-29T06:37:51;5.07;;;3.83;;
30000;SDS011;16845;48.670;9.000;2023-12-29T06:40:18;7.47;;;4.30;;
30000;SDS011;16845;48.670;9.000;2023-12-29T06:42:46;9.67;;;4.50;;
30000;SDS011;16845;48.670;9.000;2023-12-29T06:45:12;5.97;;;4.68;;
30000;SDS011;16845;48.670;9.000;2023-12-29T06:47:39;4.45;;;3.72;;
30000;SDS011;16845;48.670;9.000;2023-12-29T06:50:06;4.53;;;3.67;;
30000;SDS011;16845;48.670;9.000;2023-12-29T06:52:33;4.68;;;4.00;;
30000;SDS011;16845;48.670;9.000;2023-12-29T06:54:59;4.72;;;4.18;;
30000;SDS011;16845;48.670;9.000;2023-12-29T06:57:26;8.20;;;3.90;;
30000;SDS011;16845;48.670;9.000;2023-12-29T06:59:54;5.18;;;3.85;;
30000;SDS011;16845;48.670;9.000;2023-12-29T07:02:21;5.72;;;3.92;;
30000;SDS011;16845;48.670;9.000;2023-12-29T07:04:48;5.68;;;3.70;;
30000;SDS011;16845;48.670;9.000;2023-12-29T07:07:14;4.05;;;3.67;;
30000;SDS011;16845;48.670;9.000;2023-12-29T07:09:42;7.45;;;3.88;;
30000;SDS011;16845;48.670;9.000;2023-12-29T07:12:09;5.70;;;3.83;;
30000;SDS011;16845;48.670;9.000;2023-12-29T07:14:35;9.50;;;4.00;;
30000;SDS011;16845;48.670;9.000;2023-12-29T07:17:03;9.77;;;4.17;;
30000;SDS011;16845;48.670;9.000;2023-12-29T07:19:30;6.07;;;4.05;;
30000;SDS011;16845;48.670;9.000;2023-12-29T07:21:56;4.35;;;3.92;;
30000;SDS011;16845;48.670;9.000;2023-12-29T07:24:23;4.13;;;3.72;;
30000;SDS011;16845;48.670;9.000;2023-12-29T07:26:49;6.60;;;4.57;;
30000;SDS011;16845;48.670;9.000;2023-12-29T07:29:16;5.20;;;4.30;;
30000;SDS011;16845;48.670;9.000;2023-12-29T07:31:42;8.97;;;4.83;;
30000;SDS011;16845;48.670;9.000;2023-12-29T07:34:10;8.43;;;4.57;;
30000;SDS011;16845;48.670;9.000;2023-12-29T07:36:38;6.43;;;4.50;;
30000;SDS011;16845;48.670;9.000;2023-12-29T07:41:31;6.97;;;3.92;;
30000;SDS011;16845;48.670;9.000;2023-12-29T07:43:57;7.82;;;4.10;;
30000;SDS011;16845;48.670;9.000;2023-12-29T07:46:24;6.60;;;4.32;;
30000;SDS011;16845;48.670;9.000;2023-12-29T07:48:50;5.18;;;4.43;;
30000;SDS011;16845;48.670;9.000;2023-12-29T07:51:18;4.95;;;3.88;;
30000;SDS011;16845;48.670;9.000;2023-12-29T07:53:46;5.68;;;4.43;;
30000;SDS011;16845;48.670;9.000;2023-12-29T07:56:12;7.03;;;4.20;;
30000;SDS011;16845;48.670;9.000;2023-12-29T07:58:39;5.70;;;4.30;;
30000;SDS011;16845;48.670;9.000;2023-12-29T08:01:09;8.45;;;4.45;;
30000;SDS011;16845;48.670;9.000;2023-12-29T08:03:36;4.70;;;4.00;;
30000;SDS011;16845;48.670;9.000;2023-12-29T08:06:02;4.45;;;4.00;;
30000;SDS011;16845;48.670;9.000;2023-12-29T08:08:30;7.17;;;4.10;;
30000;SDS011;16845;48.670;9.000;2023-12-29T08:10:57;5.22;;;4.20;;
30000;SDS011;16845;48.670;9.000;2023-12-29T08:13:23;7.32;;;3.85;;
30000;SDS011;16845;48.670;9.000;2023-12-29T08:15:50;5.25;;;4.38;;
30000;SDS011;16845;48.670;9.000;2023-12-29T08:18:16;5.88;;;4.38;;
30000;SDS011;16845;48.670;9.000;2023-12-29T08:20:43;4.37;;;3.97;;
30000;SDS011;16845;48.670;9.000;2023-12-29T08:23:09;5.55;;;4.32;;
30000;SDS011;16845;48.670;9.000;2023-12-29T08:25:38;5.60;;;4.15;;
30000;SDS011;16845;48.670;9.000;2023-12-29T08:28:05;7.13;;;4.60;;
30000;SDS011;16845;48.670;9.000;2023-12-29T08:30:33;5.68;;;4.97;;
30000;SDS011;16845;48.670;9.000;2023-12-29T08:33:00;5.78;;;3.75;;
30000;SDS011;16845;48.670;9.000;2023-12-29T08:35:27;7.10;;;4.53;;
30000;SDS011;16845;48.670;9.000;2023-12-29T08:37:53;7.60;;;4.50;;
30000;SDS011;16845;48.670;9.000;2023-12-29T08:40:20;6.70;;;4.75;;
30000;SDS011;16845;48.670;9.000;2023-12-29T08:42:48;10.07;;;6.20;;
30000;SDS011;16845;48.670;9.000;2023-12-29T08:45:14;4.03;;;3.60;;
30000;SDS011;16845;48.670;9.000;2023-12-29T08:47:41;5.85;;;4.50;;
30000;SDS011;16845;48.670;9.000;2023-12-29T08:50:08;6.10;;;4.07;;
30000;SDS011;16845;48.670;9.000;2023-12-29T08:52:35;5.35;;;3.97;;
30000;SDS011;16845;48.670;9.000;2023-12-29T08:55:01;6.50;;;4.10;;
30000;SDS011;16845;48.670;9.000;2023-12-29T08:57:28;6.13;;;4.55;;
30000;SDS011;16845;48.670;9.000;2023-12-29T08:59:56;6.28;;;3.92;;
30000;SDS011;16845;48.670;9.000;2023-12-29T09:02:22;5.13;;;3.88;;
30000;SDS011;16845;48.670;9.000;2023-12-29T09:04:49;4.35;;;3.72;;
30000;SDS011;16845;48.670;9.000;2023-12-29T09:07:15;4.47;;;3.60;;
30000;SDS011;16845;48.670;9.000;2023-12-29T09:09:42;4.20;;;3.80;;
30000;SDS011;16845;48.670;9.000;2023-12-29T09:12:09;4.88;;;3.67;;
30000;SDS011;16845;48.670;9.000;2023-12-29T09:14:35;4.63;;;3.80;;
30000;SDS011;16845;48.670;9.000;2023-12-29T09:17:03;6.93;;;3.70;;
30000;SDS011;16845;48.670;9.000;2023-12-29T09:19:30;4.55;;;3.15;;
30000;SDS011;16845;48.670;9.000;2023-12-29T09:22:05;4.03;;;3.20;;
30000;SDS011;16845;48.670;9.000;2023-12-29T09:24:32;5.03;;;3.30;;
30000;SDS011;16845;48.670;9.000;2023-12-29T09:26:59;7.40;;;3.10;;
30000;SDS011;16845;48.670;9.000;2023-12-29T09:29:25;4.43;;;3.67;;
30000;SDS011;16845;48.670;9.000;2023-12-29T09:31:52;4.07;;;3.65;;
30000;SDS011;16845;48.670;9.000;2023-12-29T09:34:19;3.70;;;3.00;;
30000;SDS011;16845;48.670;9.000;2023-12-29T09:36:46;5.10;;;3.08;;
30000;SDS011;16845;48.670;9.000;2023-12-29T09:39:13;4.55;;;2.90;;
30000;SDS011;16845;48.670;9.000;2023-12-29T09:41:40;4.57;;;3.10;;
30000;SDS011;16845;48.670;9.000;2023-12-29T09:44:12;3.83;;;3.05;;
30000;SDS011;16845;48.670;9.000;2023-12-29T09:46:41;5.70;;;2.97;;
30000;SDS011;16845;48.670;9.000;2023-12-29T09:49:08;3.25;;;2.72;;
30000;SDS011;16845;48.670;9.000;2023-12-29T09:51:37;5.43;;;2.95;;
30000;SDS011;16845;48.670;9.000;2023-12-29T09:54:04;5.15;;;2.65;;
30000;SDS011;16845;48.670;9.000;2023-12-29T09:56:31;5.22;;;3.05;;
30000;SDS011;16845;48.670;9.000;2023-12-29T09:58:57;3.87;;;3.20;;
30000;SDS011;16845;48.670;9.000;2023-12-29T10:01:24;5.72;;;2.95;;
30000;SDS011;16845;48.670;9.000;2023-12-29T10:06:19;2.97;;;2.67;;
30000;SDS011;16845;48.670;9.000;2023-12-29T10:08:50;2.80;;;2.40;;
30000;SDS011;16845;48.670;9.000;2023-12-29T10:11:17;4.70;;;2.42;;
30000;SDS011;16845;48.670;9.000;2023-12-29T10:13:47;3.17;;;2.10;;
30000;SDS011;16845;48.670;9.000;2023-12-29T10:16:18;3.08;;;2.38;;
30000;SDS011;16845;48.670;9.000;2023-12-29T10:18:55;2.05;;;1.70;;
30000;SDS011;16845;48.670;9.000;2023-12-29T10:21:29;2.53;;;1.95;;
30000;SDS011;16845;48.670;9.000;2023-12-29T10:24:02;2.45;;;1.70;;
30000;SDS011;16845;48.670;9.000;2023-12-29T10:26:32;2.35;;;1.90;;
30000;SDS011;16845;48.670;9.000;2023-12-29T10:28:59;2.92;;;2.25;;
30000;SDS011;16845;48.670;9.000;2023-12-29T10:31:26;6.33;;;2.20;;
30000;SDS011;16845;48.670;9.000;2023-12-29T10:33:52;2.50;;;2.00;;
30000;SDS011;16845;48.670;9.000;2023-12-29T10:36:46;2.30;;;1.63;;
30000;SDS011;16845;48.670;9.000;2023-12-29T10:39:14;1.98;;;1.77;;
30000;SDS011;16845;48.670;9.000;2023-12-29T10:41:41;1.95;;;1.33;;
30000;SDS011;16845;48.670;9.000;2023-12-29T10:44:07;3.37;;;2.00;;
30000;SDS011;16845;48.670;9.000;2023-12-29T10:49:06;3.20;;;1.42;;
30000;SDS011;16845;48.670;9.000;2023-12-29T10:51:33;1.52;;;1.20;;
30000;SDS011;16845;48.670;9.000;2023-12-29T10:53:59;2.63;;;1.90;;
30000;SDS011;16845;48.670;9.000;2023-12-29T10:56:27;1.27;;;1.17;;
30000;SDS011;16845;48.670;9.000;2023-12-29T10:58:57;1.35;;;1.25;;
30000;SDS011;16845;48.670;9.000;2023-12-29T11:01:25;1.40;;;1.30;;
30000;SDS011;16845;48.670;9.000;2023-12-29T11:03:57;0.90;;;0.90;;
30000;SDS011;16845;48.670;9.000;2023-12-29T11:06:24;4.15;;;1.20;;
30000;SDS011;16845;48.670;9.000;2023-12-29T11:08:50;4.75;;;1.55;;
30000;SDS011;16845;48.670;9.000;2023-12-29T11:11:17;1.42;;;1.25;;
30000;SDS011;16845;48.670;9.000;2023-12-29T11:13:46;0.95;;;0.95;;
30000;SDS011;16845;48.670;9.000;2023-12-29T11:16:13;1.52;;;1.30;;
30000;SDS011;16845;48.670;9.000;2023-12-29T11:18:40;4.03;;;1.13;;
30000;SDS011;16845;48.670;9.000;2023-12-29T11:21:09;1.67;;;1.08;;
30000;SDS011;16845;48.670;9.000;2023-12-29T11:23:36;1.50;;;0.93;;
30000;SDS011;16845;48.670;9.000;2023-12-29T11:26:03;1.17;;;1.07;;
30000;SDS011;16845;48.670;9.000;2023-12-29T11:28:30;2.70;;;1.38;;
30000;SDS011;16845;48.670;9.000;2023-12-29T11:30:58;3.17;;;1.27;;
30000;SDS011;16845;48.670;9.000;2023-12-29T11:33:25;1.60;;;1.05;;
30000;SDS011;16845;48.670;9.000;2023-12-29T11:35:57;1.75;;;1.20;;
30000;SDS011;16845;48.670;9.000;2023-12-29T11:38:34;1.40;;;1.17;;
30000;SDS011;16845;48.670;9.000;2023-12-29T11:41:12;1.08;;;1.00;;
30000;SDS011;16845;48.670;9.000;2023-12-29T11:43:43;2.05;;;1.10;;
30000;SDS011;16845;48.670;9.000;2023-12-29T11:49:01;1.23;;;1.13;;
30000;SDS011;16845;48.670;9.000;2023-12-29T11:51:29;1.77;;;1.20;;
30000;SDS011;16845;48.670;9.000;2023-12-29T11:53:56;1.08;;;1.00;;
30000;SDS011;16845;48.670;9.000;2023-12-29T11:56:23;1.50;;;1.23;;
30000;SDS011;16845;48.670;9.000;2023-12-29T11:58:50;1.23;;;1.10;;
30000;SDS011;16845;48.670;9.000;2023-12-29T12:04:02;1.73;;;1.10;;
30000;SDS011;16845;48.670;9.000;2023-12-29T12:06:38;1.42;;;1.20;;
30000;SDS011;16845;48.670;9.000;2023-12-29T12:09:15;0.80;;;0.80;;
30000;SDS011;16845;48.670;9.000;2023-12-29T12:11:42;0.83;;;0.83;;
30000;SDS011;16845;48.670;9.000;2023-12-29T12:14:09;1.48;;;1.15;;
30000;SDS011;16845;48.670;9.000;2023-12-29T12:16:49;1.38;;;1.23;;
30000;SDS011;16845;48.670;9.000;2023-12-29T12:19:17;1.67;;;1.23;;
30000;SDS011;16845;48.670;9.000;2023-12-29T12:21:45;0.85;;;0.85;;
30000;SDS011;16845;48.670;9.000;2023-12-29T12:24:12;2.38;;;1.10;;
30000;SDS011;16845;48.670;9.000;2023-12-29T12:26:39;2.65;;;1.20;;
30000;SDS011;16845;48.670;9.000;2023-12-29T12:29:06;1.38;;;1.02;;
30000;SDS011;16845;48.670;9.000;2023-12-29T12:31:33;2.92;;;1.10;;
30000;SDS011;16845;48.670;9.000;2023-12-29T12:34:01;1.40;;;1.17;;
30000;SDS011;16845;48.670;9.000;2023-12-29T12:36:28;3.10;;;1.42;;
30000;SDS011;16845;48.670;9.000;2023-12-29T12:38:55;1.95;;;1.25;;
30000;SDS011;16845;48.670;9.000;2023-12-29T12:41:23;1.10;;;1.00;;
30000;SDS011;16845;48.670;9.000;2023-12-29T12:46:21;1.80;;;1.10;;
30000;SDS011;16845;48.670;9.000;2023-12-29T12:48:50;1.42;;;0.93;;
30000;SDS011;16845;48.670;9.000;2023-12-29T12:51:18;1.13;;;0.90;;
30000;SDS011;16845;48.670;9.000;2023-12-29T12:53:45;2.55;;;1.27;;
30000;SDS011;16845;48.670;9.000;2023-12-29T12:56:12;1.15;;;0.80;;
30000;SDS011;16845;48.670;9.000;2023-12-29T12:58:39;2.42;;;1.10;;
30000;SDS011;16845;48.670;9.000;2023-12-29T13:01:06;1.70;;;1.10;;
30000;SDS011;16845;48.670;9.000;2023-12-29T13:03:34;0.98;;;0.82;;
30000;SDS011;16845;48.670;9.000;2023-12-29T13:06:03;0.85;;;0.85;;
30000;SDS011;16845;48.670;9.000;2023-12-29T13:08:31;1.02;;;0.90;;
30000;SDS011;16845;48.670;9.000;2023-12-29T13:11:08;1.40;;;0.85;;
30000;SDS011;16845;48.670;9.000;2023-12-29T13:13:35;1.83;;;1.33;;
30000;SDS011;16845;48.670;9.000;2023-12-29T13:16:03;3.50;;;1.23;;
30000;SDS011;16845;48.670;9.000;2023-12-29T13:18:30;5.38;;;1.70;;
30000;SDS011;16845;48.670;9.000;2023-12-29T13:20:56;1.40;;;0.93;;
30000;SDS011;16845;48.670;9.000;2023-12-29T13:23:24;1.50;;;1.20;;
30000;SDS011;16845;48.670;9.000;2023-12-29T13:25:56;1.55;;;1.23;;
30000;SDS011;16845;48.670;9.000;2023-12-29T13:28:25;1.60;;;1.50;;
30000;SDS011;16845;48.670;9.000;2023-12-29T13:30:53;2.92;;;1.42;;
30000;SDS011;16845;48.670;9.000;2023-12-29T13:33:24;1.60;;;1.17;;
30000;SDS011;16845;48.670;9.000;2023-12-29T13:35:53;1.40;;;1.27;;
30000;SDS011;16845;48.670;9.000;2023-12-29T13:38:33;1.75;;;1.40;;
30000;SDS011;16845;48.670;9.000;2023-12-29T13:41:06;2.28;;;1.40;;
30000;SDS011;16845;48.670;9.000;2023-12-29T13:43:35;2.28;;;1.30;;
30000;SDS011;16845;48.670;9.000;2023-12-29T13:46:05;2.15;;;1.27;;
30000;SDS011;16845;48.670;9.000;2023-12-29T13:48:32;3.00;;;2.03;;
30000;SDS011;16845;48.670;9.000;2023-12-29T13:50:59;2.63;;;1.35;;
30000;SDS011;16845;48.670;9.000;2023-12-29T13:53:25;3.58;;;1.20;;
30000;SDS011;16845;48.670;9.000;2023-12-29T13:55:52;2.00;;;1.73;;
30000;SDS011;16845;48.670;9.000;2023-12-29T13:58:20;3.35;;;1.55;;
30000;SDS011;16845;48.670;9.000;2023-12-29T14:00:53;2.20;;;1.73;;
30000;SDS011;16845;48.670;9.000;2023-12-29T14:03:23;1.50;;;1.40;;
30000;SDS011;16845;48.670;9.000;2023-12-29T14:05:55;2.00;;;1.48;;
30000;SDS011;16845;48.670;9.000;2023-12-29T14:08:26;1.38;;;1.27;;
30000;SDS011;16845;48.670;9.000;2023-12-29T14:10:57;1.90;;;1.73;;
30000;SDS011;16845;48.670;9.000;2023-12-29T14:13:25;2.45;;;1.45;;
30000;SDS011;16845;48.670;9.000;2023-12-29T14:15:53;2.35;;;1.48;;
30000;SDS011;16845;48.670;9.000;2023-12-29T14:18:33;3.50;;;1.60;;
30000;SDS011;16845;48.670;9.000;2023-12-29T14:21:22;3.50;;;1.40;;
30000;SDS011;16845;48.670;9.000;2023-12-29T14:23:58;1.35;;;1.25;;
30000;SDS011;16845;48.670;9.000;2023-12-29T14:26:35;6.40;;;1.65;;
30000;SDS011;16845;48.670;9.000;2023-12-29T14:29:03;1.90;;;1.40;;
30000;SDS011;16845;48.670;9.000;2023-12-29T14:31:32;1.45;;;1.35;;
30000;SDS011;16845;48.670;9.000;2023-12-29T14:34:00;2.28;;;1.42;;
30000;SDS011;16845;48.670;9.000;2023-12-29T14:36:27;1.92;;;1.25;;
30000;SDS011;16845;48.670;9.000;2023-12-29T14:38:53;2.20;;;1.55;;
30000;SDS011;16845;48.670;9.000;2023-12-29T14:41:20;2.05;;;1.50;;
30000;SDS011;16845;48.670;9.000;2023-12-29T14:43:47;1.63;;;1.50;;
30000;SDS011;16845;48.670;9.000;2023-12-29T14:46:15;2.55;;;1.80;;
30000;SDS011;16845;48.670;9.000;2023-12-29T14:48:42;1.92;;;1.33;;
30000;SDS011;16845;48.670;9.000;2023-12-29T14:53:35;1.50;;;1.40;;
30000;SDS011;16845;48.670;9.000;2023-12-29T14:56:02;4.68;;;1.95;;
30000;SDS011;16845;48.670;9.000;2023-12-29T14:58:29;1.52;;;1.42;;
30000;SDS011;16845;48.670;9.000;2023-12-29T15:00:56;2.20;;;1.40;;
30000;SDS011;16845;48.670;9.000;2023-12-29T15:03:24;2.13;;;1.47;;
30000;SDS011;16845;48.670;9.000;2023-12-29T15:05:51;2.60;;;1.38;;
30000;SDS011;16845;48.670;9.000;2023-12-29T15:08:17;3.40;;;1.80;;
30000;SDS011;16845;48.670;9.000;2023-12-29T15:10:44;2.40;;;1.52;;
30000;SDS011;16845;48.670;9.000;2023-12-29T15:13:11;2.03;;;1.58;;
30000;SDS011;16845;48.670;9.000;2023-12-29T15:15:37;2.85;;;2.15;;